Time;durP1;ratioP1;P1;durP2;ratioP2;P2;SDS_P1;SDS_P2;PMS_P1;PMS_P2;Temp;Humidity;BMP_temperature;BMP_pressure;BME280_temperature;BME280_humidity;BME280_pressure;Samples;Min_cycle;Max_cycle;Signal;HPM_P1;HPM_P2
2022/07/10 00:00:57;;;;;;;5.43;2.95;;;24.70;92.30;;;;;;5015884;28;20506;-68
2022/07/10 00:03:25;;;;;;;5.55;2.63;;;24.70;92.30;;;;;;5004707;28;20128;-65
2022/07/10 00:05:52;;;;;;;7.82;2.15;;;24.60;92.30;;;;;;4989012;28;20049;-65
2022/07/10 00:08:19;;;;;;;3.53;2.63;;;24.60;92.20;;;;;;5004508;28;20038;-67
2022/07/10 00:10:47;;;;;;;4.63;2.20;;;24.60;92.20;;;;;;5005786;28;20068;-65
2022/07/10 00:13:15;;;;;;;4.35;2.42;;;24.60;92.20;;;;;;5004654;28;20050;-66
2022/07/10 00:15:42;;;;;;;2.80;1.95;;;24.50;92.10;;;;;;5005728;28;20096;-65
2022/07/10 00:18:10;;;;;;;4.15;2.95;;;24.50;92.20;;;;;;5003401;28;20144;-66
2022/07/10 00:20:38;;;;;;;3.67;2.55;;;24.50;92.20;;;;;;5004244;28;20587;-64
2022/07/10 00:23:05;;;;;;;4.65;2.95;;;24.50;92.30;;;;;;4987745;28;20137;-65
2022/07/10 00:25:33;;;;;;;3.53;2.42;;;24.50;92.40;;;;;;5007650;28;20049;-66
2022/07/10 00:28:01;;;;;;;3.80;2.50;;;24.40;92.40;;;;;;4991219;28;20049;-64
2022/07/10 00:30:28;;;;;;;4.00;2.70;;;24.40;92.40;;;;;;5001086;28;20053;-68
2022/07/10 00:32:58;;;;;;;4.45;2.50;;;24.40;92.50;;;;;;5038589;28;20058;-68
2022/07/10 00:35:26;;;;;;;5.15;3.25;;;24.40;92.50;;;;;;5025889;28;20095;-67
2022/07/10 00:37:53;;;;;;;4.13;2.90;;;24.30;92.50;;;;;;5041192;28;20483;-65
2022/07/10 00:40:21;;;;;;;4.57;2.60;;;24.30;92.50;;;;;;5025715;28;20071;-65
2022/07/10 00:42:49;;;;;;;5.15;3.30;;;24.30;92.30;;;;;;5028563;28;20127;-66
2022/07/10 00:45:17;;;;;;;4.55;2.38;;;24.30;92.30;;;;;;5030065;28;20159;-67
2022/07/10 00:47:44;;;;;;;3.42;2.53;;;24.30;92.20;;;;;;5028672;28;20514;-65
2022/07/10 00:50:13;;;;;;;4.50;2.45;;;24.30;92.20;;;;;;5012454;28;20061;-65
2022/07/10 00:52:41;;;;;;;3.30;1.90;;;24.30;92.20;;;;;;5011682;28;20041;-68
2022/07/10 00:55:09;;;;;;;3.85;2.40;;;24.30;92.20;;;;;;5044945;28;20049;-65
2022/07/10 00:57:39;;;;;;;5.38;3.00;;;24.20;92.20;;;;;;5030047;28;20049;-65
2022/07/10 01:00:09;;;;;;;4.32;2.47;;;24.20;92.30;;;;;;5045268;28;20079;-65
2022/07/10 01:02:41;;;;;;;3.15;2.30;;;24.20;92.30;;;;;;5044565;28;20542;-67
2022/07/10 01:05:10;;;;;;;5.28;2.80;;;24.20;92.30;;;;;;5030192;28;20195;-65
2022/07/10 01:07:37;;;;;;;5.05;3.00;;;24.20;92.30;;;;;;5012058;28;20045;-65
2022/07/10 01:10:05;;;;;;;4.47;2.90;;;24.20;92.30;;;;;;5028202;28;20176;-66
2022/07/10 01:12:33;;;;;;;4.07;2.28;;;24.20;92.40;;;;;;5027379;28;20472;-67
2022/07/10 01:15:01;;;;;;;5.10;2.50;;;24.20;92.50;;;;;;5028247;28;20081;-65
2022/07/10 01:17:29;;;;;;;7.28;2.80;;;24.20;92.60;;;;;;5011704;28;20570;-65
2022/07/10 01:19:57;;;;;;;4.90;2.92;;;24.10;92.60;;;;;;5011186;28;20052;-65
2022/07/10 01:22:24;;;;;;;6.20;2.97;;;24.10;92.60;;;;;;5027831;28;20148;-65
2022/07/10 01:24:52;;;;;;;4.78;3.08;;;24.10;92.60;;;;;;5029352;28;20088;-65
2022/07/10 01:27:20;;;;;;;5.68;3.22;;;24.00;92.70;;;;;;5027720;28;20049;-66
2022/07/10 01:29:48;;;;;;;4.63;2.67;;;24.00;92.60;;;;;;5027681;28;20140;-65
2022/07/10 01:32:16;;;;;;;3.65;2.53;;;24.00;92.60;;;;;;5011140;28;20366;-64
2022/07/10 01:34:45;;;;;;;3.83;2.80;;;24.00;92.60;;;;;;5028214;28;20053;-66
2022/07/10 01:37:13;;;;;;;3.47;2.58;;;24.00;92.60;;;;;;5011152;28;20057;-66
2022/07/10 01:39:41;;;;;;;4.55;2.90;;;24.00;92.60;;;;;;5025440;28;20138;-68
2022/07/10 01:42:08;;;;;;;4.72;2.58;;;24.00;92.60;;;;;;5044057;28;20100;-66
2022/07/10 01:44:36;;;;;;;3.60;2.40;;;24.00;92.70;;;;;;5027383;28;20053;-64
2022/07/10 01:47:04;;;;;;;3.90;2.20;;;24.00;92.80;;;;;;5044130;28;20063;-65
2022/07/10 01:49:33;;;;;;;4.15;2.15;;;24.00;92.80;;;;;;5027801;28;20867;-64
2022/07/10 01:52:01;;;;;;;5.50;2.67;;;23.90;92.80;;;;;;5026777;28;20045;-65
2022/07/10 01:54:28;;;;;;;4.65;2.67;;;23.90;92.70;;;;;;5027896;28;20055;-65
2022/07/10 01:56:56;;;;;;;7.25;2.92;;;23.90;92.70;;;;;;5026244;28;20141;-67
2022/07/10 01:59:23;;;;;;;4.38;2.50;;;23.90;92.70;;;;;;5026824;28;20053;-67
2022/07/10 02:01:51;;;;;;;4.63;2.53;;;23.90;92.70;;;;;;5027657;28;20103;-65
2022/07/10 02:07:05;;;;;;;3.80;2.40;;;23.90;92.70;;;;;;5027810;28;20053;-67
2022/07/10 02:09:32;;;;;;;7.85;2.88;;;23.90;92.60;;;;;;5011267;28;20152;-65
2022/07/10 02:12:00;;;;;;;2.80;2.13;;;23.90;92.50;;;;;;5027073;28;20119;-65
2022/07/10 02:14:28;;;;;;;3.72;2.60;;;23.80;92.40;;;;;;5010666;28;20053;-65
2022/07/10 02:16:56;;;;;;;3.40;2.42;;;23.90;92.30;;;;;;5027435;28;20179;-65
2022/07/10 02:19:24;;;;;;;4.05;2.50;;;23.90;92.20;;;;;;5044135;28;20853;-65
2022/07/10 02:21:51;;;;;;;3.80;2.50;;;23.80;92.20;;;;;;5011329;28;20148;-66
2022/07/10 02:24:19;;;;;;;3.92;2.50;;;23.80;92.10;;;;;;5027943;28;20057;-65
2022/07/10 02:26:47;;;;;;;6.60;2.42;;;23.80;92.10;;;;;;5025903;28;20037;-65
2022/07/10 02:29:14;;;;;;;4.05;2.75;;;23.80;92.10;;;;;;5026231;28;20443;-65
2022/07/10 02:31:42;;;;;;;3.78;2.65;;;23.80;92.10;;;;;;5026264;28;20224;-65
2022/07/10 02:34:11;;;;;;;3.95;3.00;;;23.60;91.90;;;;;;5026688;28;20479;-65
2022/07/10 02:36:39;;;;;;;5.07;3.47;;;23.60;91.90;;;;;;5027095;28;20050;-65
2022/07/10 02:39:08;;;;;;;4.13;3.00;;;23.60;91.50;;;;;;5026779;28;20495;-66
2022/07/10 02:41:35;;;;;;;4.10;3.22;;;23.60;91.20;;;;;;5010752;28;20140;-66
2022/07/10 02:44:04;;;;;;;4.72;2.63;;;23.60;90.90;;;;;;5042791;28;20041;-66
2022/07/10 02:46:31;;;;;;;5.78;3.58;;;23.60;90.80;;;;;;5042539;28;20037;-67
2022/07/10 02:48:59;;;;;;;3.63;2.63;;;23.60;90.70;;;;;;5010279;28;20754;-64
2022/07/10 02:51:26;;;;;;;3.92;2.75;;;23.70;90.60;;;;;;5026806;28;20369;-65
2022/07/10 02:53:54;;;;;;;4.57;2.90;;;23.60;90.50;;;;;;5028025;28;20077;-66
2022/07/10 02:56:21;;;;;;;10.20;3.97;;;23.70;90.40;;;;;;5027931;28;20160;-66
2022/07/10 02:58:49;;;;;;;4.47;3.15;;;23.70;90.20;;;;;;5025774;28;20046;-65
2022/07/10 03:01:16;;;;;;;5.60;3.47;;;23.70;90.20;;;;;;5023448;28;20127;-67
2022/07/10 03:03:44;;;;;;;3.75;2.88;;;23.70;90.00;;;;;;5026389;28;20187;-67
2022/07/10 03:06:11;;;;;;;6.50;3.55;;;23.70;89.80;;;;;;5025944;28;20132;-64
2022/07/10 03:08:39;;;;;;;7.72;4.07;;;23.70;90.00;;;;;;5026145;28;20553;-67
2022/07/10 03:11:07;;;;;;;5.75;3.13;;;23.70;90.00;;;;;;5009893;28;20601;-65
2022/07/10 03:13:35;;;;;;;5.53;3.17;;;23.70;90.30;;;;;;5026108;28;20049;-64
2022/07/10 03:16:02;;;;;;;5.25;3.50;;;23.80;90.20;;;;;;5010139;28;20117;-66
2022/07/10 03:18:30;;;;;;;6.07;3.58;;;23.80;90.30;;;;;;5006159;28;20050;-65
2022/07/10 03:20:57;;;;;;;7.25;3.35;;;23.80;90.30;;;;;;5006343;28;20519;-65
2022/07/10 03:23:25;;;;;;;4.45;2.95;;;23.80;90.40;;;;;;4990276;28;20104;-66
2022/07/10 03:25:53;;;;;;;3.78;2.67;;;23.80;90.50;;;;;;4989858;28;20041;-65
2022/07/10 03:28:22;;;;;;;4.45;3.55;;;23.90;90.60;;;;;;5007469;28;20499;-67
2022/07/10 03:30:49;;;;;;;3.90;2.90;;;23.90;90.70;;;;;;4990524;28;20488;-66
2022/07/10 03:33:17;;;;;;;3.92;3.33;;;23.90;90.80;;;;;;5005975;28;20053;-67
2022/07/10 03:35:45;;;;;;;4.57;3.20;;;23.90;90.90;;;;;;5022467;28;20419;-65
2022/07/10 03:38:13;;;;;;;6.85;2.92;;;23.90;90.90;;;;;;5005955;28;20073;-65
2022/07/10 03:40:41;;;;;;;8.20;3.33;;;23.90;90.90;;;;;;5005811;28;20053;-66
2022/07/10 03:43:08;;;;;;;4.72;3.13;;;23.90;91.00;;;;;;5006273;28;20084;-65
2022/07/10 03:45:36;;;;;;;4.82;2.90;;;23.90;91.00;;;;;;4990317;28;20136;-66
2022/07/10 03:48:04;;;;;;;4.43;2.92;;;23.90;91.00;;;;;;5021684;28;20567;-67
2022/07/10 03:50:31;;;;;;;3.78;2.70;;;24.00;91.10;;;;;;5005788;28;20093;-65
2022/07/10 03:52:59;;;;;;;3.65;2.63;;;24.00;91.20;;;;;;5006514;28;20526;-65
2022/07/10 03:55:26;;;;;;;7.50;3.28;;;24.10;91.20;;;;;;5006269;28;20141;-64
2022/07/10 03:57:54;;;;;;;5.50;3.03;;;24.10;91.20;;;;;;5022594;28;20523;-68
2022/07/10 04:00:23;;;;;;;5.50;3.05;;;24.20;91.20;;;;;;5006145;28;20077;-65
2022/07/10 04:03:04;;;;;;;5.70;3.22;;;24.20;91.20;;;;;;5005786;28;20053;-65
2022/07/10 04:05:32;;;;;;;4.18;3.08;;;24.30;91.30;;;;;;4990020;28;20511;-65
2022/07/10 04:08:01;;;;;;;5.45;3.20;;;24.40;91.30;;;;;;5005807;28;20042;-65
2022/07/10 04:10:31;;;;;;;3.70;2.72;;;24.40;91.20;;;;;;5005986;28;20056;-67
2022/07/10 04:12:59;;;;;;;6.97;3.00;;;24.50;91.30;;;;;;4992284;28;20069;-64
2022/07/10 04:15:27;;;;;;;8.65;3.53;;;24.50;91.30;;;;;;5006879;28;20096;-66
2022/07/10 04:17:54;;;;;;;5.13;3.83;;;24.60;91.30;;;;;;5009652;28;20146;-65
2022/07/10 04:20:23;;;;;;;9.27;3.95;;;24.70;91.20;;;;;;4993355;28;20058;-66
2022/07/10 04:22:50;;;;;;;4.43;3.40;;;24.70;91.20;;;;;;5010740;28;20554;-65
2022/07/10 04:25:18;;;;;;;5.15;2.95;;;24.80;91.20;;;;;;5009437;28;20408;-65
2022/07/10 04:27:45;;;;;;;5.65;3.58;;;24.90;91.30;;;;;;5010734;28;20112;-65
2022/07/10 04:30:13;;;;;;;3.95;3.38;;;24.90;91.20;;;;;;5010360;28;20073;-65
2022/07/10 04:32:40;;;;;;;4.78;3.13;;;25.00;91.20;;;;;;5009135;28;20495;-68
2022/07/10 04:35:08;;;;;;;3.92;3.00;;;25.10;91.20;;;;;;5025552;28;20065;-65
2022/07/10 04:37:36;;;;;;;3.92;2.60;;;25.20;91.20;;;;;;5010667;28;20050;-65
2022/07/10 04:40:05;;;;;;;3.95;3.05;;;25.30;91.20;;;;;;4992888;28;20137;-65
2022/07/10 04:42:32;;;;;;;4.90;3.60;;;25.40;91.30;;;;;;5008953;28;20096;-66
2022/07/10 04:45:00;;;;;;;5.05;3.42;;;25.40;91.40;;;;;;5025748;28;20041;-65
2022/07/10 04:47:27;;;;;;;4.28;3.13;;;25.60;91.40;;;;;;5010928;28;20042;-65
2022/07/10 04:49:55;;;;;;;4.43;2.95;;;25.60;91.30;;;;;;5012825;28;20030;-65
2022/07/10 04:52:23;;;;;;;4.35;2.80;;;25.70;91.20;;;;;;5030088;28;20092;-66
2022/07/10 04:54:50;;;;;;;4.70;2.92;;;25.80;91.10;;;;;;5012076;28;20084;-66
2022/07/10 04:57:18;;;;;;;7.03;3.33;;;25.90;91.10;;;;;;5028380;28;20068;-65
2022/07/10 04:59:45;;;;;;;5.47;3.22;;;26.00;91.10;;;;;;5011567;28;20240;-68
2022/07/10 05:02:13;;;;;;;4.60;3.00;;;26.10;90.90;;;;;;5027142;28;20123;-67
2022/07/10 05:04:44;;;;;;;4.50;3.38;;;26.10;90.70;;;;;;5012181;28;20053;-67
2022/07/10 05:07:11;;;;;;;4.75;3.03;;;26.30;90.60;;;;;;5028962;28;20139;-67
2022/07/10 05:09:42;;;;;;;5.13;3.28;;;26.30;90.40;;;;;;5028604;28;20071;-69
2022/07/10 05:12:14;;;;;;;4.65;3.25;;;26.50;90.40;;;;;;5012111;28;20137;-68
2022/07/10 05:14:44;;;;;;;4.20;3.10;;;26.60;90.30;;;;;;4996616;28;20072;-67
2022/07/10 05:17:13;;;;;;;4.28;2.97;;;26.70;90.30;;;;;;5030055;28;20186;-67
2022/07/10 05:19:47;;;;;;;4.20;2.92;;;26.80;90.20;;;;;;4996628;28;20080;-67
2022/07/10 05:22:17;;;;;;;6.15;3.60;;;26.90;90.10;;;;;;5012166;28;20164;-69
2022/07/10 05:24:45;;;;;;;6.45;3.40;;;27.10;90.10;;;;;;4995907;28;20360;-67
2022/07/10 05:27:19;;;;;;;5.95;3.05;;;27.20;89.80;;;;;;5027238;28;20053;-68
2022/07/10 05:29:47;;;;;;;5.63;3.20;;;27.30;89.50;;;;;;5011611;28;20076;-70
2022/07/10 05:32:15;;;;;;;4.28;3.13;;;27.40;89.20;;;;;;5027735;28;20081;-68
2022/07/10 05:34:42;;;;;;;5.28;3.05;;;27.50;88.70;;;;;;5027793;28;20391;-69
2022/07/10 05:37:10;;;;;;;6.72;3.22;;;27.50;88.30;;;;;;4995621;28;20221;-67
2022/07/10 05:39:37;;;;;;;3.40;2.75;;;27.60;87.90;;;;;;5029439;28;20108;-67
2022/07/10 05:42:05;;;;;;;6.45;3.22;;;27.70;87.60;;;;;;5028963;28;20084;-67
2022/07/10 05:44:33;;;;;;;5.68;3.33;;;27.80;87.40;;;;;;5029440;28;20412;-66
2022/07/10 05:47:00;;;;;;;3.97;3.03;;;27.90;86.60;;;;;;5011807;28;20780;-65
2022/07/10 05:49:28;;;;;;;4.53;3.05;;;27.90;84.80;;;;;;5011512;28;20068;-68
2022/07/10 05:51:55;;;;;;;4.40;3.17;;;28.00;84.30;;;;;;5026057;28;20156;-68
2022/07/10 05:54:23;;;;;;;4.45;3.00;;;28.10;84.30;;;;;;5029299;28;20132;-68
2022/07/10 05:56:51;;;;;;;8.75;2.90;;;28.10;84.00;;;;;;5028277;28;20376;-67
2022/07/10 05:59:18;;;;;;;3.50;2.90;;;28.20;83.30;;;;;;5027805;28;20042;-67
2022/07/10 06:01:46;;;;;;;4.28;3.13;;;28.20;83.40;;;;;;5029265;28;20041;-68
2022/07/10 06:04:13;;;;;;;3.60;2.60;;;28.20;82.90;;;;;;5028104;28;20570;-69
2022/07/10 06:06:41;;;;;;;4.65;2.88;;;28.20;82.30;;;;;;5011275;28;20064;-67
2022/07/10 06:09:08;;;;;;;5.07;3.00;;;28.20;82.10;;;;;;5027405;28;20064;-67
2022/07/10 06:11:36;;;;;;;4.32;2.95;;;28.10;82.60;;;;;;5027654;28;20061;-68
2022/07/10 06:14:04;;;;;;;3.78;2.88;;;28.10;83.00;;;;;;5027368;28;20060;-67
2022/07/10 06:16:31;;;;;;;6.65;3.13;;;27.70;82.90;;;;;;5028715;28;20105;-67
2022/07/10 06:18:59;;;;;;;4.70;3.40;;;27.70;83.80;;;;;;5027734;28;20041;-66
2022/07/10 06:21:27;;;;;;;3.53;2.72;;;27.60;84.10;;;;;;5028883;28;20371;-67
2022/07/10 06:23:54;;;;;;;4.45;2.78;;;27.30;83.70;;;;;;5028345;28;20091;-70
2022/07/10 06:26:22;;;;;;;5.53;3.70;;;27.20;84.20;;;;;;5028685;28;20045;-68
2022/07/10 06:28:50;;;;;;;4.93;3.22;;;26.90;84.90;;;;;;5026763;28;20406;-67
2022/07/10 06:31:17;;;;;;;4.18;3.38;;;26.80;85.80;;;;;;5027155;28;20140;-64
2022/07/10 06:33:45;;;;;;;5.30;2.75;;;26.70;86.20;;;;;;5028180;28;20448;-66
2022/07/10 06:36:13;;;;;;;4.45;3.17;;;26.90;86.10;;;;;;5026563;28;20052;-66
2022/07/10 06:38:41;;;;;;;4.05;3.13;;;27.10;85.80;;;;;;5024280;28;20041;-65
2022/07/10 06:41:09;;;;;;;5.32;3.58;;;27.50;85.70;;;;;;5010232;28;20041;-68
2022/07/10 06:43:37;;;;;;;4.15;3.05;;;27.90;85.00;;;;;;5010460;28;20053;-65
2022/07/10 06:46:05;;;;;;;4.28;3.67;;;28.20;84.40;;;;;;5010340;28;20144;-65
2022/07/10 06:48:33;;;;;;;3.65;2.60;;;28.50;83.20;;;;;;5026740;28;20499;-65
2022/07/10 06:51:00;;;;;;;3.92;3.17;;;28.80;82.40;;;;;;5026378;28;20068;-66
2022/07/10 06:53:28;;;;;;;3.90;2.60;;;28.90;80.90;;;;;;5026505;28;20041;-66
2022/07/10 06:55:56;;;;;;;4.35;3.10;;;29.00;78.10;;;;;;5027724;28;20056;-68
2022/07/10 06:58:23;;;;;;;3.65;2.83;;;29.00;78.30;;;;;;5026454;28;20128;-66
2022/07/10 07:00:51;;;;;;;5.03;2.67;;;29.10;78.60;;;;;;5027468;28;20128;-65
2022/07/10 07:03:18;;;;;;;3.90;2.95;;;29.10;78.50;;;;;;5025763;28;20045;-66
2022/07/10 07:05:46;;;;;;;3.75;2.92;;;29.00;78.80;;;;;;5027239;28;20125;-66
2022/07/10 07:08:13;;;;;;;4.85;2.60;;;29.10;79.30;;;;;;5026725;28;20103;-66
2022/07/10 07:10:41;;;;;;;4.03;3.05;;;29.10;79.50;;;;;;5025545;28;20052;-65
2022/07/10 07:13:09;;;;;;;3.67;2.88;;;29.00;79.60;;;;;;5026527;28;20132;-67
2022/07/10 07:15:41;;;;;;;6.00;2.75;;;29.10;79.00;;;;;;5025725;28;20041;-66
2022/07/10 07:18:12;;;;;;;3.60;2.90;;;29.00;79.30;;;;;;5026472;28;20069;-66
2022/07/10 07:23:25;;;;;;;4.10;2.90;;;29.10;77.90;;;;;;5026072;28;20534;-68
2022/07/10 07:25:53;;;;;;;6.07;3.20;;;29.30;77.30;;;;;;5026974;28;20033;-65
2022/07/10 07:28:21;;;;;;;4.53;2.92;;;29.50;76.00;;;;;;5026508;28;20271;-66
2022/07/10 07:30:49;;;;;;;3.50;2.97;;;29.70;76.60;;;;;;5008960;28;20101;-68
2022/07/10 07:33:17;;;;;;;3.38;2.70;;;29.60;76.60;;;;;;5041807;28;20073;-66
2022/07/10 07:35:45;;;;;;;4.18;2.78;;;29.70;76.00;;;;;;5026647;28;20101;-66
2022/07/10 07:38:12;;;;;;;4.85;2.95;;;29.60;75.30;;;;;;5025739;28;20151;-65
2022/07/10 07:40:40;;;;;;;4.32;3.42;;;29.50;76.20;;;;;;5025923;28;20056;-66
2022/07/10 07:43:08;;;;;;;4.85;3.10;;;29.40;76.20;;;;;;5025333;28;20080;-65
2022/07/10 07:45:36;;;;;;;4.85;3.20;;;29.50;76.20;;;;;;5024710;28;20425;-65
2022/07/10 07:48:04;;;;;;;4.35;2.95;;;29.20;77.10;;;;;;5026859;28;20090;-67
2022/07/10 07:50:36;;;;;;;5.30;3.45;;;29.00;77.90;;;;;;5008424;28;20103;-65
2022/07/10 07:53:05;;;;;;;4.25;2.83;;;29.20;77.90;;;;;;5009960;28;20391;-67
2022/07/10 07:55:34;;;;;;;3.75;2.70;;;29.30;78.10;;;;;;5025649;28;20127;-66
2022/07/10 07:58:03;;;;;;;4.10;3.10;;;29.50;77.90;;;;;;5008562;28;20054;-65
2022/07/10 08:00:31;;;;;;;4.20;2.90;;;29.50;77.90;;;;;;5025444;28;20053;-65
2022/07/10 08:03:00;;;;;;;3.95;3.25;;;29.60;77.90;;;;;;5026742;28;20407;-65
2022/07/10 08:05:29;;;;;;;4.47;3.08;;;29.50;78.60;;;;;;5041955;28;20052;-66
2022/07/10 08:08:06;;;;;;;4.65;2.88;;;29.50;79.00;;;;;;5025499;28;20085;-74
2022/07/10 08:10:34;;;;;;;5.45;3.50;;;29.50;79.10;;;;;;5007190;28;20130;-66
2022/07/10 08:13:04;;;;;;;5.13;3.60;;;29.30;79.80;;;;;;5008290;28;20046;-65
2022/07/10 08:15:31;;;;;;;5.97;3.10;;;29.50;80.60;;;;;;5008464;28;20041;-66
2022/07/10 08:18:00;;;;;;;3.63;2.97;;;29.60;79.70;;;;;;5009047;28;20042;-68
2022/07/10 08:20:28;;;;;;;4.65;3.35;;;29.50;78.80;;;;;;5025139;28;20057;-69
2022/07/10 08:22:55;;;;;;;3.63;3.08;;;29.70;78.70;;;;;;5025120;28;20084;-65
2022/07/10 08:25:26;;;;;;;4.88;3.35;;;29.80;77.70;;;;;;5024667;28;20119;-65
2022/07/10 08:27:54;;;;;;;4.32;3.53;;;30.00;77.70;;;;;;5041395;28;20042;-65
2022/07/10 08:30:22;;;;;;;4.05;3.08;;;30.00;77.00;;;;;;5024327;28;20111;-68
2022/07/10 08:32:49;;;;;;;3.50;2.75;;;29.90;76.80;;;;;;5024489;28;20052;-65
2022/07/10 08:35:17;;;;;;;3.63;2.80;;;30.00;76.30;;;;;;5026585;28;20486;-66
2022/07/10 08:37:45;;;;;;;4.55;3.50;;;30.00;76.90;;;;;;5024948;28;20061;-67
2022/07/10 08:40:15;;;;;;;3.85;3.38;;;30.00;76.60;;;;;;5040832;28;20049;-67
2022/07/10 08:42:46;;;;;;;3.72;3.10;;;29.90;76.40;;;;;;5025713;28;20500;-69
2022/07/10 08:45:14;;;;;;;4.47;3.30;;;30.10;74.00;;;;;;5025111;28;20620;-67
2022/07/10 08:47:44;;;;;;;4.00;3.10;;;30.10;74.20;;;;;;5024649;28;20104;-65
2022/07/10 08:50:33;;;;;;;4.40;3.42;;;30.20;74.30;;;;;;5041244;28;20042;-66
2022/07/10 08:53:16;;;;;;;4.65;3.42;;;30.40;75.10;;;;;;5040742;28;20115;-65
2022/07/10 08:55:44;;;;;;;4.03;3.30;;;30.40;75.00;;;;;;5025575;28;20198;-65
2022/07/10 08:58:13;;;;;;;5.95;3.40;;;30.40;71.40;;;;;;5008674;28;20053;-66
2022/07/10 09:00:40;;;;;;;4.60;3.15;;;30.30;72.30;;;;;;5040950;28;20038;-66
2022/07/10 09:03:08;;;;;;;5.65;3.42;;;30.40;73.00;;;;;;5027172;28;20045;-68
2022/07/10 09:05:36;;;;;;;4.28;3.13;;;30.40;71.10;;;;;;5029673;28;20042;-68
2022/07/10 09:08:03;;;;;;;4.03;3.22;;;30.40;71.50;;;;;;5028174;28;20056;-65
2022/07/10 09:10:32;;;;;;;5.28;3.42;;;30.40;72.70;;;;;;5010791;28;20064;-65
2022/07/10 09:13:01;;;;;;;4.03;3.00;;;30.50;71.70;;;;;;5044639;28;20618;-66
2022/07/10 09:15:32;;;;;;;16.77;3.85;;;30.40;72.60;;;;;;5028386;28;20456;-65
2022/07/10 09:18:03;;;;;;;3.88;3.08;;;30.30;72.50;;;;;;5028071;28;20067;-65
2022/07/10 09:20:36;;;;;;;4.35;3.42;;;30.10;72.70;;;;;;5027952;28;20444;-65
2022/07/10 09:23:21;;;;;;;5.03;3.45;;;30.20;71.80;;;;;;5029374;28;20096;-65
2022/07/10 09:25:53;;;;;;;5.05;3.95;;;30.30;72.20;;;;;;5028233;28;20060;-68
2022/07/10 09:28:23;;;;;;;3.92;3.45;;;30.20;72.60;;;;;;5029318;28;20487;-66
2022/07/10 09:30:50;;;;;;;4.50;3.42;;;30.30;72.80;;;;;;5028507;28;20045;-67
2022/07/10 09:33:30;;;;;;;5.60;3.40;;;30.10;71.90;;;;;;5029725;28;20055;-68
2022/07/10 09:36:08;;;;;;;4.65;3.47;;;30.00;72.50;;;;;;5011354;28;20140;-67
2022/07/10 09:38:44;;;;;;;5.53;3.08;;;29.90;72.40;;;;;;5028938;28;20191;-69
2022/07/10 09:41:12;;;;;;;3.70;3.05;;;29.90;71.40;;;;;;5027876;28;20042;-66
2022/07/10 09:43:48;;;;;;;3.92;3.03;;;29.90;72.20;;;;;;5027810;28;20142;-66
2022/07/10 09:46:17;;;;;;;4.00;3.22;;;29.90;72.80;;;;;;5027415;28;20054;-65
2022/07/10 09:48:45;;;;;;;4.60;3.10;;;30.10;72.80;;;;;;5011198;28;20399;-66
2022/07/10 09:51:13;;;;;;;4.30;3.08;;;30.30;71.90;;;;;;5027250;28;20120;-65
2022/07/10 09:53:42;;;;;;;4.78;3.60;;;30.40;72.60;;;;;;5011274;28;20139;-66
2022/07/10 09:56:13;;;;;;;5.80;3.42;;;30.40;73.50;;;;;;5024261;28;20532;-66
2022/07/10 09:58:43;;;;;;;4.40;3.60;;;30.40;73.50;;;;;;5027792;28;20049;-65
2022/07/10 10:01:11;;;;;;;4.43;3.65;;;30.50;73.50;;;;;;5044371;28;20090;-65
2022/07/10 10:03:39;;;;;;;5.38;4.30;;;30.70;73.40;;;;;;5010492;28;20216;-65
2022/07/10 10:06:14;;;;;;;5.10;3.88;;;30.50;73.50;;;;;;5043763;28;20452;-66
2022/07/10 10:08:56;;;;;;;7.30;3.92;;;30.70;73.90;;;;;;5011232;28;20057;-70
2022/07/10 10:11:27;;;;;;;5.43;3.63;;;30.50;74.10;;;;;;5027776;28;20038;-67
2022/07/10 10:13:55;;;;;;;6.95;3.83;;;30.40;74.70;;;;;;5026786;28;20060;-65
2022/07/10 10:16:27;;;;;;;4.85;4.10;;;30.40;75.30;;;;;;5028031;28;20483;-66
2022/07/10 10:21:45;;;;;;;5.60;3.83;;;30.40;75.40;;;;;;5027100;28;20107;-65
2022/07/10 10:24:14;;;;;;;4.90;3.95;;;30.30;75.60;;;;;;5010074;28;20174;-65
2022/07/10 10:26:43;;;;;;;4.68;4.18;;;30.20;76.70;;;;;;5028135;28;20055;-66
2022/07/10 10:29:12;;;;;;;6.47;3.78;;;30.10;77.20;;;;;;5026226;28;20144;-66
2022/07/10 10:31:41;;;;;;;4.38;3.75;;;30.40;78.10;;;;;;5010207;28;20243;-65
2022/07/10 10:34:09;;;;;;;6.45;4.65;;;30.10;78.40;;;;;;5026351;28;20884;-66
2022/07/10 10:36:36;;;;;;;5.47;3.63;;;30.10;78.90;;;;;;5026810;28;20038;-66
2022/07/10 10:39:10;;;;;;;4.97;3.95;;;30.10;78.80;;;;;;5010457;28;20411;-65
2022/07/10 10:41:40;;;;;;;4.43;3.53;;;30.10;78.00;;;;;;5010411;28;20068;-67
2022/07/10 10:44:08;;;;;;;5.50;4.43;;;30.20;78.10;;;;;;5009646;28;20134;-66
2022/07/10 10:46:53;;;;;;;7.63;4.28;;;30.30;76.30;;;;;;5026087;28;20111;-67
2022/07/10 10:49:23;;;;;;;8.75;3.65;;;30.30;76.20;;;;;;5026482;28;20060;-66
2022/07/10 10:52:01;;;;;;;5.93;3.78;;;30.40;77.10;;;;;;5026192;28;20123;-66
2022/07/10 10:54:57;;;;;;;4.22;3.58;;;30.40;78.00;;;;;;5013091;28;20122;-67
2022/07/10 10:57:31;;;;;;;4.63;3.63;;;30.20;77.60;;;;;;5022701;28;20045;-68
2022/07/10 11:00:00;;;;;;;4.60;3.10;;;29.90;77.30;;;;;;5022482;28;20113;-65
2022/07/10 11:02:27;;;;;;;5.22;3.38;;;29.90;78.20;;;;;;5006055;28;20100;-65
2022/07/10 11:08:00;;;;;;;4.40;3.53;;;30.10;77.80;;;;;;5005901;28;20491;-66
2022/07/10 11:10:42;;;;;;;5.65;3.78;;;30.30;77.10;;;;;;5005818;28;20084;-65
2022/07/10 11:13:15;;;;;;;5.40;3.90;;;30.40;76.40;;;;;;5007344;28;20814;-65
2022/07/10 11:15:46;;;;;;;5.45;3.50;;;30.40;77.30;;;;;;4989963;28;20096;-66
2022/07/10 11:18:18;;;;;;;4.72;3.85;;;30.50;77.90;;;;;;5005766;28;20142;-66
2022/07/10 11:20:51;;;;;;;5.05;3.70;;;30.50;77.30;;;;;;5006835;28;20088;-65
2022/07/10 11:23:53;;;;;;;5.85;3.40;;;30.40;76.10;;;;;;5021946;28;20100;-68
2022/07/10 11:26:36;;;;;;;4.63;3.75;;;30.30;76.50;;;;;;4988850;28;20381;-65
2022/07/10 11:29:07;;;;;;;5.70;4.30;;;30.10;77.80;;;;;;4989782;28;20045;-66
2022/07/10 11:31:40;;;;;;;5.47;3.25;;;30.00;77.60;;;;;;5007480;28;20045;-66
2022/07/10 11:34:08;;;;;;;6.95;3.92;;;29.90;76.60;;;;;;5022512;28;20052;-67
2022/07/10 11:36:39;;;;;;;5.28;3.42;;;29.90;77.40;;;;;;5007400;28;20104;-65
2022/07/10 11:39:08;;;;;;;5.85;3.80;;;30.00;75.40;;;;;;4973932;28;20495;-68
2022/07/10 11:41:46;;;;;;;6.60;4.10;;;30.10;77.00;;;;;;4990150;28;20168;-66
2022/07/10 11:44:20;;;;;;;4.55;3.33;;;30.10;80.70;;;;;;4989286;28;20132;-67
2022/07/10 11:46:49;;;;;;;9.52;4.50;;;30.10;80.50;;;;;;5006872;28;20061;-66
2022/07/10 11:49:17;;;;;;;17.10;4.30;;;29.90;79.70;;;;;;5008325;28;20049;-67
2022/07/10 11:51:45;;;;;;;6.47;4.53;;;29.70;79.40;;;;;;5024578;28;20402;-66
2022/07/10 11:54:18;;;;;;;4.68;3.33;;;29.80;82.00;;;;;;5026391;28;20144;-67
2022/07/10 11:56:53;;;;;;;4.30;3.50;;;29.80;79.30;;;;;;5026860;28;20104;-66
2022/07/10 11:59:26;;;;;;;5.30;3.47;;;29.70;78.20;;;;;;5008890;28;20064;-66
2022/07/10 12:01:55;;;;;;;7.05;3.47;;;29.60;79.70;;;;;;5026681;28;20350;-68
2022/07/10 12:04:25;;;;;;;4.65;4.00;;;29.70;81.00;;;;;;5025005;28;20140;-66
2022/07/10 12:06:55;;;;;;;5.63;3.60;;;29.70;83.50;;;;;;5009174;28;20053;-67
2022/07/10 12:09:24;;;;;;;5.50;3.50;;;29.70;80.30;;;;;;5027211;28;20057;-67
2022/07/10 12:12:07;;;;;;;6.10;3.47;;;29.70;80.10;;;;;;4992846;28;20475;-67
2022/07/10 12:14:35;;;;;;;6.30;3.92;;;29.70;81.80;;;;;;5025798;28;20121;-73
2022/07/10 12:17:12;;;;;;;4.38;3.63;;;29.60;79.60;;;;;;5008916;28;20064;-70
2022/07/10 12:19:40;;;;;;;5.63;4.03;;;29.50;78.70;;;;;;5025470;28;20064;-67
2022/07/10 12:22:08;;;;;;;4.80;3.00;;;29.40;79.80;;;;;;5025431;28;20132;-69
2022/07/10 12:24:36;;;;;;;4.85;3.20;;;29.30;78.90;;;;;;5009695;28;20049;-67
2022/07/10 12:27:04;;;;;;;4.82;3.28;;;29.40;78.50;;;;;;5026675;28;20139;-68
2022/07/10 12:29:32;;;;;;;5.25;3.05;;;29.40;75.70;;;;;;5008969;28;20066;-68
2022/07/10 12:32:01;;;;;;;4.57;3.10;;;29.40;76.10;;;;;;5026993;28;20045;-67
2022/07/10 12:34:43;;;;;;;4.72;3.53;;;29.40;76.20;;;;;;5008473;28;20049;-69
2022/07/10 12:37:12;;;;;;;5.55;3.58;;;29.40;76.10;;;;;;5028062;28;20118;-71
2022/07/10 12:39:53;;;;;;;3.53;2.67;;;29.40;74.80;;;;;;5028946;28;20045;-66
2022/07/10 12:42:31;;;;;;;4.82;3.45;;;29.30;75.20;;;;;;5012381;28;20061;-68
2022/07/10 12:45:12;;;;;;;4.25;3.72;;;29.40;75.30;;;;;;5029894;28;20045;-67
2022/07/10 12:47:48;;;;;;;5.18;3.35;;;29.30;73.60;;;;;;5012183;28;20041;-67
2022/07/10 12:50:20;;;;;;;3.92;3.13;;;29.30;75.10;;;;;;5028975;28;20038;-67
2022/07/10 12:52:48;;;;;;;3.78;3.25;;;29.30;73.00;;;;;;5029276;28;20163;-67
2022/07/10 12:55:18;;;;;;;4.40;3.72;;;29.30;73.10;;;;;;5012555;28;20053;-67
2022/07/10 12:58:04;;;;;;;5.35;3.67;;;29.40;73.90;;;;;;5045119;28;20049;-67
2022/07/10 13:00:34;;;;;;;;;;;29.40;74.20;;;;;;5012538;28;20143;-67
2022/07/10 13:03:05;;;;;;;4.43;3.40;;;29.40;73.20;;;;;;5045148;28;19951;-67
2022/07/10 13:05:40;;;;;;;5.22;3.25;;;29.40;72.40;;;;;;5028041;28;20052;-68
2022/07/10 13:08:24;;;;;;;5.63;2.65;;;29.50;72.10;;;;;;5030008;28;20071;-67
2022/07/10 13:10:54;;;;;;;4.35;3.20;;;29.60;70.80;;;;;;5028475;28;20049;-68